sensor_id;sensor_type;location;lat;lon;timestamp;pressure;altitude;pressure_sealevel;temperature;humidity
61205;BME280;47068;55.780;37.520;2023-04-04T00:01:25;99766.00;;;10.69;70.59
61205;BME280;47068;55.780;37.520;2023-04-04T00:03:50;99777.31;;;10.79;70.20
61205;BME280;47068;55.780;37.520;2023-04-04T00:06:17;99776.31;;;10.80;69.90
61205;BME280;47068;55.780;37.520;2023-04-04T00:08:43;99783.00;;;10.84;69.82
61205;BME280;47068;55.780;37.520;2023-04-04T00:11:09;99783.31;;;10.89;69.84
61205;BME280;47068;55.780;37.520;2023-04-04T00:13:35;99788.97;;;10.94;69.21
61205;BME280;47068;55.780;37.520;2023-04-04T00:16:01;99809.28;;;10.95;69.32
61205;BME280;47068;55.780;37.520;2023-04-04T00:18:27;99799.81;;;10.84;69.25
61205;BME280;47068;55.780;37.520;2023-04-04T00:20:52;99768.25;;;10.13;70.84
61205;BME280;47068;55.780;37.520;2023-04-04T00:23:18;99795.47;;;10.33;71.50
61205;BME280;47068;55.780;37.520;2023-04-04T00:25:48;99803.25;;;10.26;71.64
61205;BME280;47068;55.780;37.520;2023-04-04T00:28:14;99801.13;;;10.30;71.84
61205;BME280;47068;55.780;37.520;2023-04-04T00:30:40;99806.44;;;10.30;71.62
61205;BME280;47068;55.780;37.520;2023-04-04T00:33:05;99798.13;;;10.33;71.82
61205;BME280;47068;55.780;37.520;2023-04-04T00:35:31;99794.47;;;10.34;71.50
61205;BME280;47068;55.780;37.520;2023-04-04T00:37:57;99809.44;;;10.35;71.45
61205;BME280;47068;55.780;37.520;2023-04-04T00:40:22;99787.47;;;10.33;71.54
61205;BME280;47068;55.780;37.520;2023-04-04T00:42:47;99792.84;;;10.41;71.39
61205;BME280;47068;55.780;37.520;2023-04-04T00:45:13;99762.53;;;10.26;71.06
61205;BME280;47068;55.780;37.520;2023-04-04T00:47:42;99772.53;;;10.32;71.02
61205;BME280;47068;55.780;37.520;2023-04-04T00:50:08;99780.03;;;10.37;71.01
61205;BME280;47068;55.780;37.520;2023-04-04T00:52:33;99786.53;;;10.42;70.66
61205;BME280;47068;55.780;37.520;2023-04-04T00:54:59;99786.03;;;10.47;70.85
61205;BME280;47068;55.780;37.520;2023-04-04T00:57:26;99794.16;;;10.45;71.02
61205;BME280;47068;55.780;37.520;2023-04-04T00:59:53;99785.53;;;10.43;70.90
61205;BME280;47068;55.780;37.520;2023-04-04T01:02:20;99772.53;;;10.32;70.79
61205;BME280;47068;55.780;37.520;2023-04-04T01:04:45;99766.81;;;10.19;70.92
61205;BME280;47068;55.780;37.520;2023-04-04T01:07:12;99787.81;;;10.30;70.97
61205;BME280;47068;55.780;37.520;2023-04-04T01:09:38;99768.41;;;10.12;70.74
61205;BME280;47068;55.780;37.520;2023-04-04T01:12:05;99770.16;;;10.21;71.46
61205;BME280;47068;55.780;37.520;2023-04-04T01:14:31;99792.75;;;10.25;71.38
61205;BME280;47068;55.780;37.520;2023-04-04T01:16:58;99783.22;;;10.14;71.20
61205;BME280;47068;55.780;37.520;2023-04-04T01:19:43;99788.09;;;10.19;71.58
61205;BME280;47068;55.780;37.520;2023-04-04T01:22:11;99788.38;;;10.16;71.99
61205;BME280;47068;55.780;37.520;2023-04-04T01:24:41;99763.06;;;10.04;71.54
61205;BME280;47068;55.780;37.520;2023-04-04T01:27:07;99757.09;;;10.10;71.64
61205;BME280;47068;55.780;37.520;2023-04-04T01:29:32;99731.00;;;10.05;71.15
61205;BME280;47068;55.780;37.520;2023-04-04T01:32:03;99769.50;;;10.27;70.80
61205;BME280;47068;55.780;37.520;2023-04-04T01:37:35;99786.94;;;10.21;71.18
61205;BME280;47068;55.780;37.520;2023-04-04T01:40:22;99786.94;;;10.21;71.11
61205;BME280;47068;55.780;37.520;2023-04-04T01:42:48;99779.44;;;10.17;71.13
61205;BME280;47068;55.780;37.520;2023-04-04T01:45:15;99757.09;;;10.10;71.28
61205;BME280;47068;55.780;37.520;2023-04-04T01:47:43;99776.31;;;10.21;71.07
61205;BME280;47068;55.780;37.520;2023-04-04T01:50:10;99757.09;;;10.10;70.51
61205;BME280;47068;55.780;37.520;2023-04-04T01:52:36;99790.06;;;10.17;70.81
61205;BME280;47068;55.780;37.520;2023-04-04T01:55:02;99785.53;;;10.09;71.04
61205;BME280;47068;55.780;37.520;2023-04-04T01:57:29;99752.03;;;9.91;71.04
61205;BME280;47068;55.780;37.520;2023-04-04T01:59:54;99795.00;;;10.12;70.97
61205;BME280;47068;55.780;37.520;2023-04-04T02:02:20;99783.06;;;10.16;71.08
61205;BME280;47068;55.780;37.520;2023-04-04T02:04:45;99780.56;;;10.14;70.69
61205;BME280;47068;55.780;37.520;2023-04-04T02:07:12;99758.13;;;10.09;70.68
61205;BME280;47068;55.780;37.520;2023-04-04T02:09:37;99782.63;;;10.20;70.50
61205;BME280;47068;55.780;37.520;2023-04-04T02:12:03;99785.72;;;10.16;70.47
61205;BME280;47068;55.780;37.520;2023-04-04T02:14:28;99791.34;;;10.13;70.74
61205;BME280;47068;55.780;37.520;2023-04-04T02:16:54;99780.38;;;10.08;70.67
61205;BME280;47068;55.780;37.520;2023-04-04T02:19:19;99783.69;;;10.10;70.60
61205;BME280;47068;55.780;37.520;2023-04-04T02:21:45;99750.19;;;9.91;70.93
61205;BME280;47068;55.780;37.520;2023-04-04T02:24:11;99777.16;;;10.22;70.58
61205;BME280;47068;55.780;37.520;2023-04-04T02:26:36;99788.91;;;10.19;70.42
61205;BME280;47068;55.780;37.520;2023-04-04T02:29:02;99769.06;;;10.06;70.16
61205;BME280;47068;55.780;37.520;2023-04-04T02:31:27;99778.81;;;10.23;70.53
61205;BME280;47068;55.780;37.520;2023-04-04T02:33:53;99737.44;;;9.95;70.15
61205;BME280;47068;55.780;37.520;2023-04-04T02:36:19;99776.78;;;10.17;70.21
61205;BME280;47068;55.780;37.520;2023-04-04T02:38:44;99784.75;;;10.17;70.20
61205;BME280;47068;55.780;37.520;2023-04-04T02:41:10;99786.41;;;10.18;70.35
61205;BME280;47068;55.780;37.520;2023-04-04T02:43:35;99793.41;;;10.19;69.72
61205;BME280;47068;55.780;37.520;2023-04-04T02:46:01;99779.34;;;10.01;70.32
61205;BME280;47068;55.780;37.520;2023-04-04T02:48:29;99783.66;;;10.02;70.33
61205;BME280;47068;55.780;37.520;2023-04-04T02:50:55;99775.69;;;10.02;70.71
61205;BME280;47068;55.780;37.520;2023-04-04T02:53:21;99783.88;;;10.08;69.95
61205;BME280;47068;55.780;37.520;2023-04-04T02:55:46;99754.03;;;9.88;70.02
61205;BME280;47068;55.780;37.520;2023-04-04T02:58:12;99740.06;;;9.86;70.26
61205;BME280;47068;55.780;37.520;2023-04-04T03:00:38;99781.03;;;10.10;69.97
61205;BME280;47068;55.780;37.520;2023-04-04T03:03:03;99781.84;;;10.10;70.25
61205;BME280;47068;55.780;37.520;2023-04-04T03:05:29;99771.91;;;10.12;70.13
61205;BME280;47068;55.780;37.520;2023-04-04T03:07:56;99768.34;;;10.21;69.79
61205;BME280;47068;55.780;37.520;2023-04-04T03:10:23;99746.25;;;10.03;69.62
61205;BME280;47068;55.780;37.520;2023-04-04T03:12:49;99777.97;;;10.22;69.65
61205;BME280;47068;55.780;37.520;2023-04-04T03:15:15;99772.31;;;10.25;69.54
61205;BME280;47068;55.780;37.520;2023-04-04T03:17:40;99781.94;;;10.18;69.38
61205;BME280;47068;55.780;37.520;2023-04-04T03:20:06;99784.06;;;10.15;69.67
61205;BME280;47068;55.780;37.520;2023-04-04T03:22:33;99778.88;;;10.13;69.54
61205;BME280;47068;55.780;37.520;2023-04-04T03:24:58;99788.91;;;10.19;69.75
61205;BME280;47068;55.780;37.520;2023-04-04T03:27:23;99767.03;;;10.00;69.57
61205;BME280;47068;55.780;37.520;2023-04-04T03:29:49;99790.91;;;10.17;69.63
61205;BME280;47068;55.780;37.520;2023-04-04T03:32:15;99793.69;;;10.16;69.88
61205;BME280;47068;55.780;37.520;2023-04-04T03:34:42;99798.72;;;10.19;69.87
61205;BME280;47068;55.780;37.520;2023-04-04T03:37:09;99796.75;;;10.21;69.54
61205;BME280;47068;55.780;37.520;2023-04-04T03:39:34;99810.34;;;10.18;69.70
61205;BME280;47068;55.780;37.520;2023-04-04T03:42:00;99784.00;;;10.07;69.86
61205;BME280;47068;55.780;37.520;2023-04-04T03:44:25;99784.69;;;10.09;70.13
61205;BME280;47068;55.780;37.520;2023-04-04T03:46:51;99788.69;;;10.13;70.39
61205;BME280;47068;55.780;37.520;2023-04-04T03:49:16;99797.06;;;10.18;69.97
61205;BME280;47068;55.780;37.520;2023-04-04T03:51:42;99800.38;;;10.20;69.90
61205;BME280;47068;55.780;37.520;2023-04-04T03:54:07;99758.53;;;9.96;69.87
61205;BME280;47068;55.780;37.520;2023-04-04T03:56:32;99745.41;;;9.95;69.79
61205;BME280;47068;55.780;37.520;2023-04-04T03:58:58;99754.72;;;9.99;69.51
61205;BME280;47068;55.780;37.520;2023-04-04T04:01:24;99671.31;;;9.58;69.43
61205;BME280;47068;55.780;37.520;2023-04-04T04:03:49;99790.16;;;10.33;69.53
61205;BME280;47068;55.780;37.520;2023-04-04T04:06:15;99794.16;;;10.45;69.25
61205;BME280;47068;55.780;37.520;2023-04-04T04:08:41;99774.72;;;10.37;68.61
61205;BME280;47068;55.780;37.520;2023-04-04T04:11:06;99791.69;;;10.44;69.24
61205;BME280;47068;55.780;37.520;2023-04-04T04:13:35;99789.69;;;10.46;69.28
61205;BME280;47068;55.780;37.520;2023-04-04T04:16:03;99784.03;;;10.41;68.98
61205;BME280;47068;55.780;37.520;2023-04-04T04:18:29;99794.69;;;10.49;68.99
61205;BME280;47068;55.780;37.520;2023-04-04T04:20:57;99787.91;;;10.54;68.71
61205;BME280;47068;55.780;37.520;2023-04-04T04:23:24;99796.59;;;10.64;68.48
61205;BME280;47068;55.780;37.520;2023-04-04T04:25:49;99789.63;;;10.72;68.69
61205;BME280;47068;55.780;37.520;2023-04-04T04:28:15;99795.13;;;10.78;67.87
61205;BME280;47068;55.780;37.520;2023-04-04T04:30:41;99802.78;;;10.81;67.83
61205;BME280;47068;55.780;37.520;2023-04-04T04:33:06;99799.47;;;10.87;67.61
61205;BME280;47068;55.780;37.520;2023-04-04T04:35:35;99747.53;;;10.67;67.24
61205;BME280;47068;55.780;37.520;2023-04-04T04:38:02;99799.50;;;11.12;67.19
61205;BME280;47068;55.780;37.520;2023-04-04T04:40:27;99790.69;;;11.19;67.13
61205;BME280;47068;55.780;37.520;2023-04-04T04:42:52;99793.69;;;11.32;66.61
61205;BME280;47068;55.780;37.520;2023-04-04T04:45:18;99798.69;;;11.35;65.70
61205;BME280;47068;55.780;37.520;2023-04-04T04:47:43;99792.72;;;11.33;65.62
61205;BME280;47068;55.780;37.520;2023-04-04T04:50:09;99787.03;;;11.28;66.02
61205;BME280;47068;55.780;37.520;2023-04-04T04:52:36;99792.72;;;11.33;66.05
61205;BME280;47068;55.780;37.520;2023-04-04T04:55:02;99800.34;;;11.36;65.68
61205;BME280;47068;55.780;37.520;2023-04-04T04:57:27;99796.19;;;11.50;64.98
61205;BME280;47068;55.780;37.520;2023-04-04T04:59:53;99798.69;;;11.52;65.51
61205;BME280;47068;55.780;37.520;2023-04-04T05:02:18;99769.06;;;11.38;65.50
61205;BME280;47068;55.780;37.520;2023-04-04T05:04:43;99754.91;;;11.54;64.61
61205;BME280;47068;55.780;37.520;2023-04-04T05:07:11;99723.41;;;11.50;64.10
61205;BME280;47068;55.780;37.520;2023-04-04T05:09:37;99741.06;;;11.67;63.86
61205;BME280;47068;55.780;37.520;2023-04-04T05:12:03;99778.97;;;12.01;63.24
61205;BME280;47068;55.780;37.520;2023-04-04T05:14:29;99751.78;;;12.06;62.38
61205;BME280;47068;55.780;37.520;2023-04-04T05:16:54;99741.56;;;12.17;61.98
61205;BME280;47068;55.780;37.520;2023-04-04T05:19:20;99828.13;;;12.54;61.50
61205;BME280;47068;55.780;37.520;2023-04-04T05:21:45;99759.50;;;12.71;60.52
61205;BME280;47068;55.780;37.520;2023-04-04T05:24:11;99771.81;;;13.02;59.67
61205;BME280;47068;55.780;37.520;2023-04-04T05:26:37;99763.28;;;13.30;59.04
61205;BME280;47068;55.780;37.520;2023-04-04T05:29:02;99765.66;;;13.62;58.19
61205;BME280;47068;55.780;37.520;2023-04-04T05:31:28;99778.44;;;13.90;57.40
61205;BME280;47068;55.780;37.520;2023-04-04T05:33:53;99738.91;;;13.62;55.42
61205;BME280;47068;55.780;37.520;2023-04-04T05:36:20;99745.28;;;13.24;57.26
61205;BME280;47068;55.780;37.520;2023-04-04T05:38:46;99764.97;;;13.68;56.26
61205;BME280;47068;55.780;37.520;2023-04-04T05:41:12;99722.00;;;13.10;56.69
61205;BME280;47068;55.780;37.520;2023-04-04T05:43:37;99765.84;;;13.23;56.59
61205;BME280;47068;55.780;37.520;2023-04-04T05:46:03;99735.53;;;13.08;56.97
61205;BME280;47068;55.780;37.520;2023-04-04T05:48:28;99781.63;;;13.33;57.48
61205;BME280;47068;55.780;37.520;2023-04-04T05:50:54;99784.88;;;13.43;57.14
61205;BME280;47068;55.780;37.520;2023-04-04T05:53:19;99784.66;;;13.30;56.62
61205;BME280;47068;55.780;37.520;2023-04-04T05:55:45;99777.97;;;13.03;58.39
61205;BME280;47068;55.780;37.520;2023-04-04T05:58:11;99781.25;;;13.36;56.56
61205;BME280;47068;55.780;37.520;2023-04-04T06:00:37;99725.16;;;13.36;56.25
61205;BME280;47068;55.780;37.520;2023-04-04T06:03:04;99782.13;;;14.03;54.06
61205;BME280;47068;55.780;37.520;2023-04-04T06:05:29;99771.59;;;14.61;54.27
61205;BME280;47068;55.780;37.520;2023-04-04T06:07:57;99769.34;;;15.21;51.86
61205;BME280;47068;55.780;37.520;2023-04-04T06:10:22;99728.22;;;15.35;50.15
61205;BME280;47068;55.780;37.520;2023-04-04T06:12:51;99760.88;;;15.60;49.50
61205;BME280;47068;55.780;37.520;2023-04-04T06:15:16;99754.84;;;15.58;49.91
61205;BME280;47068;55.780;37.520;2023-04-04T06:17:42;99760.88;;;16.29;48.53
61205;BME280;47068;55.780;37.520;2023-04-04T06:20:07;99743.19;;;17.09;45.77
61205;BME280;47068;55.780;37.520;2023-04-04T06:22:33;99756.44;;;17.50;45.78
61205;BME280;47068;55.780;37.520;2023-04-04T06:24:59;99714.84;;;18.49;42.63
61205;BME280;47068;55.780;37.520;2023-04-04T06:27:24;99754.91;;;18.84;41.68
61205;BME280;47068;55.780;37.520;2023-04-04T06:29:50;99750.66;;;17.53;43.04
61205;BME280;47068;55.780;37.520;2023-04-04T06:32:15;99639.66;;;16.39;45.24
61205;BME280;47068;55.780;37.520;2023-04-04T06:34:48;99750.53;;;19.77;41.03
61205;BME280;47068;55.780;37.520;2023-04-04T06:37:14;99764.16;;;21.75;36.79
61205;BME280;47068;55.780;37.520;2023-04-04T06:39:39;99764.50;;;22.13;35.49
61205;BME280;47068;55.780;37.520;2023-04-04T06:42:05;99762.44;;;21.27;35.83
61205;BME280;47068;55.780;37.520;2023-04-04T06:44:30;99752.22;;;20.51;37.91
61205;BME280;47068;55.780;37.520;2023-04-04T06:46:55;99767.59;;;20.69;37.59
61205;BME280;47068;55.780;37.520;2023-04-04T06:49:21;99749.81;;;20.91;36.79
61205;BME280;47068;55.780;37.520;2023-04-04T06:51:47;99763.72;;;21.25;37.16
61205;BME280;47068;55.780;37.520;2023-04-04T06:54:15;99770.63;;;21.74;35.59
61205;BME280;47068;55.780;37.520;2023-04-04T06:56:40;99761.44;;;23.46;32.59
61205;BME280;47068;55.780;37.520;2023-04-04T06:59:06;99755.00;;;24.85;31.29
61205;BME280;47068;55.780;37.520;2023-04-04T07:01:35;99755.38;;;23.89;30.34
61205;BME280;47068;55.780;37.520;2023-04-04T07:04:03;99724.91;;;23.21;31.13
61205;BME280;47068;55.780;37.520;2023-04-04T07:06:29;99752.59;;;26.68;27.87
61205;BME280;47068;55.780;37.520;2023-04-04T07:08:55;99753.59;;;29.92;22.51
61205;BME280;47068;55.780;37.520;2023-04-04T07:11:21;99760.06;;;25.88;26.79
61205;BME280;47068;55.780;37.520;2023-04-04T07:13:49;99751.59;;;23.90;29.08
61205;BME280;47068;55.780;37.520;2023-04-04T07:16:15;99746.44;;;24.11;29.27
61205;BME280;47068;55.780;37.520;2023-04-04T07:18:40;99754.00;;;24.09;28.93
61205;BME280;47068;55.780;37.520;2023-04-04T07:21:09;99728.91;;;22.33;31.11
61205;BME280;47068;55.780;37.520;2023-04-04T07:23:38;99732.53;;;20.92;34.09
61205;BME280;47068;55.780;37.520;2023-04-04T07:26:03;99763.44;;;20.84;35.72
61205;BME280;47068;55.780;37.520;2023-04-04T07:28:29;99714.00;;;19.93;36.90
61205;BME280;47068;55.780;37.520;2023-04-04T07:30:58;99772.88;;;19.84;36.82
61205;BME280;47068;55.780;37.520;2023-04-04T07:33:25;99764.41;;;18.93;37.86
61205;BME280;47068;55.780;37.520;2023-04-04T07:35:51;99778.25;;;18.59;38.95
61205;BME280;47068;55.780;37.520;2023-04-04T07:38:17;99725.97;;;18.08;39.80
61205;BME280;47068;55.780;37.520;2023-04-04T07:40:43;99766.13;;;18.23;39.84
61205;BME280;47068;55.780;37.520;2023-04-04T07:43:08;99761.00;;;18.02;40.14
61205;BME280;47068;55.780;37.520;2023-04-04T07:45:34;99768.47;;;17.60;40.73
61205;BME280;47068;55.780;37.520;2023-04-04T07:47:59;99764.13;;;17.40;41.49
61205;BME280;47068;55.780;37.520;2023-04-04T07:50:24;99770.72;;;17.30;41.73
61205;BME280;47068;55.780;37.520;2023-04-04T07:52:51;99768.84;;;17.11;42.42
61205;BME280;47068;55.780;37.520;2023-04-04T07:55:18;99754.56;;;16.50;43.54
61205;BME280;47068;55.780;37.520;2023-04-04T07:57:44;99768.84;;;16.50;43.98
61205;BME280;47068;55.780;37.520;2023-04-04T08:00:11;99737.38;;;16.38;43.92
61205;BME280;47068;55.780;37.520;2023-04-04T08:02:37;99760.81;;;16.57;43.42
61205;BME280;47068;55.780;37.520;2023-04-04T08:05:05;99774.31;;;16.70;43.56
61205;BME280;47068;55.780;37.520;2023-04-04T08:07:30;99763.25;;;17.00;42.82
61205;BME280;47068;55.780;37.520;2023-04-04T08:09:56;99740.69;;;16.94;42.86
61205;BME280;47068;55.780;37.520;2023-04-04T08:12:21;99770.31;;;17.14;43.02
61205;BME280;47068;55.780;37.520;2023-04-04T08:14:47;99773.69;;;16.68;42.73
61205;BME280;47068;55.780;37.520;2023-04-04T08:17:12;99766.97;;;15.75;45.40
61205;BME280;47068;55.780;37.520;2023-04-04T08:19:39;99772.84;;;15.22;46.21
61205;BME280;47068;55.780;37.520;2023-04-04T08:22:04;99748.72;;;15.64;46.14
61205;BME280;47068;55.780;37.520;2023-04-04T08:24:30;99770.28;;;16.53;44.34
61205;BME280;47068;55.780;37.520;2023-04-04T08:26:55;99768.81;;;16.98;44.04
61205;BME280;47068;55.780;37.520;2023-04-04T08:29:21;99742.09;;;16.77;44.82
61205;BME280;47068;55.780;37.520;2023-04-04T08:31:49;99754.84;;;17.62;44.12
61205;BME280;47068;55.780;37.520;2023-04-04T08:34:14;99744.00;;;18.08;42.07
61205;BME280;47068;55.780;37.520;2023-04-04T08:36:40;99757.94;;;18.49;43.10
61205;BME280;47068;55.780;37.520;2023-04-04T08:39:05;99771.22;;;18.96;41.96
61205;BME280;47068;55.780;37.520;2023-04-04T08:41:31;99771.25;;;19.27;41.65
61205;BME280;47068;55.780;37.520;2023-04-04T08:44:01;99758.09;;;19.06;40.14
61205;BME280;47068;55.780;37.520;2023-04-04T08:46:28;99710.78;;;18.27;41.14
61205;BME280;47068;55.780;37.520;2023-04-04T08:48:55;99732.72;;;18.37;41.69
61205;BME280;47068;55.780;37.520;2023-04-04T08:51:21;99761.34;;;18.25;40.74
61205;BME280;47068;55.780;37.520;2023-04-04T08:53:50;99765.75;;;17.14;44.47
61205;BME280;47068;55.780;37.520;2023-04-04T08:56:16;99766.59;;;17.48;42.67
61205;BME280;47068;55.780;37.520;2023-04-04T08:58:42;99769.31;;;17.74;42.86
61205;BME280;47068;55.780;37.520;2023-04-04T09:01:07;99768.06;;;17.90;42.37
61205;BME280;47068;55.780;37.520;2023-04-04T09:03:34;99773.63;;;17.95;41.49
61205;BME280;47068;55.780;37.520;2023-04-04T09:06:01;99770.53;;;17.78;43.52
61205;BME280;47068;55.780;37.520;2023-04-04T09:08:28;99777.53;;;18.12;42.10
61205;BME280;47068;55.780;37.520;2023-04-04T09:10:54;99758.41;;;18.33;42.12
61205;BME280;47068;55.780;37.520;2023-04-04T09:13:20;99770.34;;;18.64;41.28
61205;BME280;47068;55.780;37.520;2023-04-04T09:15:55;99770.72;;;18.74;40.29
61205;BME280;47068;55.780;37.520;2023-04-04T09:18:21;99775.75;;;18.64;41.20
61205;BME280;47068;55.780;37.520;2023-04-04T09:20:47;99772.88;;;18.59;41.30
61205;BME280;47068;55.780;37.520;2023-04-04T09:23:15;99747.00;;;18.44;40.98
61205;BME280;47068;55.780;37.520;2023-04-04T09:25:54;99777.81;;;18.55;41.17
61205;BME280;47068;55.780;37.520;2023-04-04T09:28:20;99776.16;;;18.54;40.43
61205;BME280;47068;55.780;37.520;2023-04-04T09:30:48;99785.72;;;18.57;40.30
61205;BME280;47068;55.780;37.520;2023-04-04T09:33:15;99760.28;;;18.26;40.74
61205;BME280;47068;55.780;37.520;2023-04-04T09:35:46;99787.66;;;18.30;40.93
61205;BME280;47068;55.780;37.520;2023-04-04T09:38:13;99787.22;;;18.26;41.52
61205;BME280;47068;55.780;37.520;2023-04-04T09:40:40;99784.72;;;18.38;40.86
61205;BME280;47068;55.780;37.520;2023-04-04T09:43:07;99797.19;;;18.32;40.29
61205;BME280;47068;55.780;37.520;2023-04-04T09:45:34;99789.19;;;17.73;41.25
61205;BME280;47068;55.780;37.520;2023-04-04T09:48:00;99784.97;;;17.18;42.88
61205;BME280;47068;55.780;37.520;2023-04-04T09:50:26;99783.72;;;17.07;44.13
61205;BME280;47068;55.780;37.520;2023-04-04T09:52:58;99780.84;;;17.22;43.40
61205;BME280;47068;55.780;37.520;2023-04-04T09:55:34;99791.19;;;17.25;43.20
61205;BME280;47068;55.780;37.520;2023-04-04T09:58:32;99783.31;;;17.23;43.67
61205;BME280;47068;55.780;37.520;2023-04-04T10:01:01;99776.91;;;17.18;44.10
61205;BME280;47068;55.780;37.520;2023-04-04T10:03:28;99787.28;;;17.34;44.19
61205;BME280;47068;55.780;37.520;2023-04-04T10:06:04;99793.69;;;17.59;42.71
61205;BME280;47068;55.780;37.520;2023-04-04T10:08:30;99796.59;;;17.38;42.50
61205;BME280;47068;55.780;37.520;2023-04-04T10:10:59;99797.34;;;16.51;44.44
61205;BME280;47068;55.780;37.520;2023-04-04T10:13:27;99788.75;;;16.63;44.88
61205;BME280;47068;55.780;37.520;2023-04-04T10:15:57;99779.50;;;16.72;44.57
61205;BME280;47068;55.780;37.520;2023-04-04T10:18:25;99792.75;;;16.80;43.55
61205;BME280;47068;55.780;37.520;2023-04-04T10:20:56;99775.38;;;16.35;44.23
61205;BME280;47068;55.780;37.520;2023-04-04T10:23:23;99790.44;;;16.70;43.89
61205;BME280;47068;55.780;37.520;2023-04-04T10:25:51;99783.91;;;16.99;44.34
61205;BME280;47068;55.780;37.520;2023-04-04T10:28:18;99791.00;;;17.20;43.93
61205;BME280;47068;55.780;37.520;2023-04-04T10:36:53;99800.56;;;16.34;43.02
61205;BME280;47068;55.780;37.520;2023-04-04T10:39:25;99804.09;;;16.41;43.33
61205;BME280;47068;55.780;37.520;2023-04-04T10:41:52;99801.81;;;16.72;42.50
61205;BME280;47068;55.780;37.520;2023-04-04T10:47:00;99801.75;;;17.20;40.23
61205;BME280;47068;55.780;37.520;2023-04-04T10:49:29;99789.13;;;17.27;39.70
61205;BME280;47068;55.780;37.520;2023-04-04T10:51:55;99795.34;;;17.34;39.61
61205;BME280;47068;55.780;37.520;2023-04-04T10:54:21;99806.47;;;17.18;38.58
61205;BME280;47068;55.780;37.520;2023-04-04T10:56:47;99807.66;;;16.96;39.10
61205;BME280;47068;55.780;37.520;2023-04-04T10:59:15;99806.16;;;16.73;39.08
61205;BME280;47068;55.780;37.520;2023-04-04T11:04:16;99794.31;;;16.61;39.99
61205;BME280;47068;55.780;37.520;2023-04-04T11:07:14;99794.34;;;16.74;40.20
61205;BME280;47068;55.780;37.520;2023-04-04T11:12:12;99796.84;;;16.76;39.67
61205;BME280;47068;55.780;37.520;2023-04-04T11:15:05;99796.91;;;16.48;39.95
61205;BME280;47068;55.780;37.520;2023-04-04T11:20:21;99743.19;;;16.00;40.51
61205;BME280;47068;55.780;37.520;2023-04-04T11:23:07;99795.41;;;16.39;40.56
61205;BME280;47068;55.780;37.520;2023-04-04T11:25:39;99773.59;;;16.55;41.17
61205;BME280;47068;55.780;37.520;2023-04-04T11:28:15;99791.53;;;16.89;40.43
61205;BME280;47068;55.780;37.520;2023-04-04T11:34:09;99788.69;;;17.17;39.83
61205;BME280;47068;55.780;37.520;2023-04-04T11:39:07;99787.88;;;17.16;38.60
61205;BME280;47068;55.780;37.520;2023-04-04T11:41:46;99788.66;;;16.97;39.09
61205;BME280;47068;55.780;37.520;2023-04-04T11:44:16;99771.31;;;16.52;41.34
61205;BME280;47068;55.780;37.520;2023-04-04T11:46:44;99798.91;;;16.74;42.89
61205;BME280;47068;55.780;37.520;2023-04-04T11:49:16;99785.59;;;16.52;43.03
61205;BME280;47068;55.780;37.520;2023-04-04T11:51:42;99804.66;;;16.64;43.01
61205;BME280;47068;55.780;37.520;2023-04-04T11:54:12;99809.25;;;16.70;42.89
61205;BME280;47068;55.780;37.520;2023-04-04T11:56:41;99801.84;;;16.79;42.74
61205;BME280;47068;55.780;37.520;2023-04-04T11:59:06;99810.31;;;16.82;42.98
61205;BME280;47068;55.780;37.520;2023-04-04T12:01:32;99802.22;;;16.76;42.70
61205;BME280;47068;55.780;37.520;2023-04-04T12:03:59;99766.97;;;16.44;42.60
61205;BME280;47068;55.780;37.520;2023-04-04T12:06:28;99801.78;;;16.66;43.03
61205;BME280;47068;55.780;37.520;2023-04-04T12:08:53;99788.31;;;16.59;42.53
61205;BME280;47068;55.780;37.520;2023-04-04T12:11:19;99805.53;;;16.78;42.85
61205;BME280;47068;55.780;37.520;2023-04-04T12:13:49;99804.75;;;16.90;42.81
61205;BME280;47068;55.780;37.520;2023-04-04T12:16:18;99783.06;;;16.92;42.39
61205;BME280;47068;55.780;37.520;2023-04-04T12:18:44;99797.75;;;17.03;42.51
61205;BME280;47068;55.780;37.520;2023-04-04T12:21:10;99759.25;;;16.82;42.19
61205;BME280;47068;55.780;37.520;2023-04-04T12:23:36;99809.78;;;17.07;42.57
61205;BME280;47068;55.780;37.520;2023-04-04T12:26:02;99819.50;;;17.08;42.26
61205;BME280;47068;55.780;37.520;2023-04-04T12:28:33;99794.03;;;16.97;42.47
61205;BME280;47068;55.780;37.520;2023-04-04T12:31:00;99814.31;;;17.00;42.48
61205;BME280;47068;55.780;37.520;2023-04-04T12:33:31;99815.69;;;16.89;42.71
61205;BME280;47068;55.780;37.520;2023-04-04T12:36:02;99802.03;;;16.77;42.93
61205;BME280;47068;55.780;37.520;2023-04-04T12:38:29;99818.00;;;16.92;43.29
61205;BME280;47068;55.780;37.520;2023-04-04T12:40:55;99816.75;;;16.94;42.77
61205;BME280;47068;55.780;37.520;2023-04-04T12:43:21;99645.84;;;15.79;42.83
61205;BME280;47068;55.780;37.520;2023-04-04T12:45:49;99827.72;;;16.93;43.28
61205;BME280;47068;55.780;37.520;2023-04-04T12:48:17;99798.09;;;16.73;42.63
61205;BME280;47068;55.780;37.520;2023-04-04T12:50:53;99802.81;;;16.65;43.08
61205;BME280;47068;55.780;37.520;2023-04-04T12:53:23;99819.19;;;16.83;43.40
61205;BME280;47068;55.780;37.520;2023-04-04T12:55:50;99801.19;;;16.70;42.95
61205;BME280;47068;55.780;37.520;2023-04-04T12:58:21;99825.03;;;16.86;43.10
61205;BME280;47068;55.780;37.520;2023-04-04T13:00:52;99785.22;;;16.62;42.95
61205;BME280;47068;55.780;37.520;2023-04-04T13:03:23;99820.84;;;16.77;42.82
61205;BME280;47068;55.780;37.520;2023-04-04T13:05:49;99833.28;;;16.85;42.91
61205;BME280;47068;55.780;37.520;2023-04-04T13:08:16;99829.31;;;16.81;42.97
61205;BME280;47068;55.780;37.520;2023-04-04T13:11:02;99835.31;;;16.76;43.24
61205;BME280;47068;55.780;37.520;2023-04-04T13:13:39;99836.94;;;16.71;43.57
61205;BME280;47068;55.780;37.520;2023-04-04T13:16:05;99832.41;;;16.71;43.63